Time;durP1;ratioP1;P1;durP2;ratioP2;P2;SDS_P1;SDS_P2;PMS_P1;PMS_P2;Temp;Humidity;BMP_temperature;BMP_pressure;BME280_temperature;BME280_humidity;BME280_pressure;Samples;Min_cycle;Max_cycle;Signal;HPM_P1;HPM_P2
2021/08/03 00:01:32;;;;;;;13.95;4.13;;;;;;;23.69;55.50;94888.63;5095582;28;20032;-80
2021/08/03 00:04:10;;;;;;;11.48;4.28;;;;;;;23.63;55.63;94886.16;5060866;28;20031;-79
2021/08/03 00:06:35;;;;;;;13.32;4.28;;;;;;;23.65;55.38;94885.84;5078645;28;20047;-80
2021/08/03 00:09:01;;;;;;;11.88;4.13;;;;;;;23.64;55.92;94882.41;5061802;28;20028;-81
2021/08/03 00:11:27;;;;;;;13.60;3.83;;;;;;;23.68;55.69;94893.16;5062962;28;20028;-80
2021/08/03 00:13:59;;;;;;;10.40;4.20;;;;;;;23.68;55.41;94887.84;5096240;28;20036;-80
2021/08/03 00:16:24;;;;;;;9.52;4.35;;;;;;;23.62;55.54;94891.78;5095612;28;20035;-80
2021/08/03 00:18:52;;;;;;;12.50;3.88;;;;;;;23.56;55.60;94885.78;5060755;28;20036;-80
2021/08/03 00:21:18;;;;;;;10.85;3.88;;;;;;;23.56;55.33;94890.31;5095753;28;20032;-80
2021/08/03 00:23:46;;;;;;;11.23;3.75;;;;;;;23.57;55.39;94897.22;5078116;28;20035;-80
2021/08/03 00:26:13;;;;;;;13.93;4.03;;;;;;;23.59;55.47;94897.69;5078379;28;20097;-80
2021/08/03 00:28:39;;;;;;;11.95;4.18;;;;;;;23.58;55.53;94902.22;5061483;28;20119;-80
2021/08/03 00:31:04;;;;;;;15.13;3.42;;;;;;;23.55;55.63;94899.38;5079359;28;20103;-79
2021/08/03 00:33:30;;;;;;;8.35;3.58;;;;;;;23.54;55.26;94892.50;5062290;28;20510;-80
2021/08/03 00:35:55;;;;;;;12.95;4.07;;;;;;;23.54;55.63;94892.50;5098829;28;20035;-79
2021/08/03 00:38:21;;;;;;;13.65;3.92;;;;;;;23.50;55.45;94895.00;5098986;28;20032;-78
2021/08/03 00:40:55;;;;;;;6.95;3.63;;;;;;;23.46;55.48;94895.94;5065371;28;20032;-79
2021/08/03 00:43:20;;;;;;;10.82;4.20;;;;;;;23.50;55.57;94896.88;5076346;28;20031;-80
2021/08/03 00:45:46;;;;;;;8.43;4.05;;;;;;;23.49;55.94;94893.44;5096463;28;20080;-80
2021/08/03 00:48:11;;;;;;;11.57;4.20;;;;;;;23.52;55.95;94898.13;5097554;28;20038;-79
2021/08/03 00:50:37;;;;;;;10.23;4.22;;;;;;;23.54;55.79;94898.59;5098026;28;20042;-80
2021/08/03 00:53:03;;;;;;;9.13;3.78;;;;;;;23.56;55.63;94904.38;5081685;28;20036;-81
2021/08/03 00:55:28;;;;;;;9.13;4.10;;;;;;;23.54;55.60;94903.13;5064046;28;20070;-79
2021/08/03 00:57:54;;;;;;;11.25;4.15;;;;;;;23.53;55.89;94901.56;5048265;22;20033;-80
2021/08/03 01:00:19;;;;;;;12.38;4.40;;;;;;;23.53;55.66;94896.25;5074236;28;20028;-80
2021/08/03 01:02:45;;;;;;;16.08;4.20;;;;;;;23.54;55.27;94900.47;5073662;28;20024;-80
2021/08/03 01:05:10;;;;;;;9.27;3.88;;;;;;;23.55;55.24;94902.03;5056791;28;20043;-80
2021/08/03 01:07:57;;;;;;;13.63;4.35;;;;;;;23.53;55.18;94905.00;5040341;28;20039;-80
2021/08/03 01:10:50;;;;;;;7.85;3.90;;;;;;;23.49;55.32;94890.78;5077895;28;20028;-80
2021/08/03 01:13:25;;;;;;;15.65;4.53;;;;;;;23.51;55.41;94893.13;5062657;28;20032;-79
2021/08/03 01:15:54;;;;;;;12.60;4.00;;;;;;;23.50;55.07;94896.88;5076855;28;20073;-80
2021/08/03 01:18:26;;;;;;;8.77;3.67;;;;;;;23.50;54.79;94918.13;5078638;28;20024;-80
2021/08/03 01:21:13;;;;;;;11.95;3.78;;;;;;;23.42;55.15;94917.00;5060724;28;20029;-81
2021/08/03 01:23:57;;;;;;;7.60;4.18;;;;;;;23.34;54.97;94921.22;5077985;28;20116;-79
2021/08/03 01:27:02;;;;;;;12.48;3.83;;;;;;;23.27;55.24;94915.59;5078583;28;20066;-80
2021/08/03 01:29:28;;;;;;;8.13;3.95;;;;;;;23.25;55.25;94917.75;5076994;28;20040;-80
2021/08/03 01:31:57;;;;;;;10.23;3.40;;;;;;;23.23;54.76;94914.63;5043967;28;20415;-80
2021/08/03 01:34:22;;;;;;;9.70;4.25;;;;;;;23.20;54.89;94920.53;5041372;28;20442;-80
2021/08/03 01:36:55;;;;;;;16.85;6.13;;;;;;;23.19;55.04;94918.97;5059975;28;20033;-80
2021/08/03 01:39:26;;;;;;;12.88;5.07;;;;;;;23.19;55.44;94912.91;5077482;28;20024;-80
2021/08/03 01:41:52;;;;;;;9.45;4.40;;;;;;;23.17;55.25;94921.16;5076614;28;20035;-80
2021/08/03 01:44:18;;;;;;;16.95;5.65;;;;;;;23.15;55.69;94918.03;5060009;28;20033;-79
2021/08/03 01:46:44;;;;;;;11.68;4.60;;;;;;;23.14;55.65;94911.19;5077006;28;20036;-80
2021/08/03 01:49:10;;;;;;;15.70;4.43;;;;;;;23.12;55.16;94910.72;5060044;28;20033;-80
2021/08/03 01:51:35;;;;;;;13.45;4.20;;;;;;;23.08;55.71;94907.09;5064880;22;20051;-80
2021/08/03 01:54:01;;;;;;;9.60;3.75;;;;;;;23.06;55.83;94914.56;5077703;28;20036;-80
2021/08/03 01:56:26;;;;;;;12.20;4.30;;;;;;;23.04;55.82;94906.94;5074558;28;20090;-80
2021/08/03 01:58:52;;;;;;;9.20;3.90;;;;;;;23.06;55.80;94898.66;5060057;28;20033;-80
2021/08/03 02:01:20;;;;;;;7.80;3.97;;;;;;;23.07;55.94;94889.63;5076240;28;20052;-80
2021/08/03 02:03:48;;;;;;;15.70;4.25;;;;;;;23.12;55.45;94891.34;5043726;28;20029;-80
2021/08/03 02:06:15;;;;;;;9.25;3.72;;;;;;;23.15;55.32;94886.22;5076290;28;20060;-80
2021/08/03 02:08:41;;;;;;;9.80;3.80;;;;;;;23.13;55.17;94888.41;5076492;28;20029;-80
2021/08/03 02:11:06;;;;;;;10.85;3.75;;;;;;;23.15;55.33;94894.16;5063748;22;20055;-80
2021/08/03 02:13:34;;;;;;;9.25;4.40;;;;;;;23.17;55.35;94894.63;5057380;28;20021;-80
2021/08/03 02:16:00;;;;;;;9.63;4.93;;;;;;;23.19;55.22;94886.38;5057329;28;20033;-80
2021/08/03 02:18:25;;;;;;;11.60;5.38;;;;;;;23.18;55.30;94901.50;5039407;28;20040;-80
2021/08/03 02:20:53;;;;;;;14.60;5.07;;;;;;;23.14;55.07;94911.19;5038687;28;20073;-79
2021/08/03 02:23:18;;;;;;;13.88;4.30;;;;;;;23.11;55.07;94905.72;5039522;28;20496;-80
2021/08/03 02:25:44;;;;;;;12.13;4.45;;;;;;;23.10;54.94;94922.69;5037754;28;20132;-80
2021/08/03 02:28:09;;;;;;;11.68;4.45;;;;;;;23.10;55.06;94926.13;5052363;28;20029;-79
2021/08/03 02:30:35;;;;;;;9.10;5.20;;;;;;;23.09;54.88;94924.56;5056888;28;20040;-80
2021/08/03 02:33:08;;;;;;;10.55;4.75;;;;;;;23.06;54.84;94938.44;5022256;28;20029;-80
2021/08/03 02:36:02;;;;;;;7.13;3.67;;;;;;;23.07;54.74;94947.97;5038180;28;20072;-80
2021/08/03 02:38:28;;;;;;;4.85;3.40;;;;;;;23.03;55.12;94944.38;5054912;28;20041;-80
2021/08/03 02:40:54;;;;;;;15.35;4.20;;;;;;;23.00;55.01;94953.72;5022759;28;20094;-80
2021/08/03 02:43:20;;;;;;;13.88;4.18;;;;;;;22.95;55.41;94953.09;5039579;28;20032;-80
2021/08/03 02:45:45;;;;;;;16.00;4.13;;;;;;;22.92;55.45;94948.38;5038959;28;20041;-80
2021/08/03 02:48:12;;;;;;;13.48;4.45;;;;;;;22.90;55.48;94950.56;5038231;28;20022;-80
2021/08/03 02:50:39;;;;;;;17.83;4.20;;;;;;;22.89;55.32;94954.28;5037069;28;20037;-79
2021/08/03 02:53:08;;;;;;;13.85;4.50;;;;;;;22.87;55.54;94945.88;5056523;28;20035;-79
2021/08/03 02:55:43;;;;;;;11.70;4.25;;;;;;;22.84;55.47;94951.78;5073443;22;20507;-79
2021/08/03 02:58:11;;;;;;;10.75;3.92;;;;;;;22.81;55.56;94949.72;5054035;28;20055;-80
2021/08/03 03:00:38;;;;;;;10.57;4.68;;;;;;;22.79;55.79;94957.19;5022885;28;20039;-80
2021/08/03 03:03:06;;;;;;;10.93;4.25;;;;;;;22.78;55.70;94956.41;5071746;28;20055;-80
2021/08/03 03:05:31;;;;;;;10.88;4.47;;;;;;;22.77;55.33;94955.59;5071941;28;20048;-80
2021/08/03 03:08:06;;;;;;;9.60;4.13;;;;;;;22.75;55.66;94952.47;5054983;28;20067;-80
2021/08/03 03:10:32;;;;;;;10.68;4.30;;;;;;;22.70;55.64;94955.28;5055007;28;20107;-79
2021/08/03 03:13:02;;;;;;;15.20;4.65;;;;;;;22.70;55.91;94955.28;5037450;28;20039;-80
2021/08/03 03:15:28;;;;;;;12.82;4.55;;;;;;;22.69;55.65;94953.72;5055801;28;20044;-79
2021/08/03 03:17:56;;;;;;;8.57;3.83;;;;;;;22.69;56.08;94964.31;5071734;28;20029;-78
2021/08/03 03:20:22;;;;;;;6.82;4.45;;;;;;;22.68;56.04;94962.75;5053972;28;20044;-79
2021/08/03 03:22:48;;;;;;;14.75;4.47;;;;;;;22.67;55.91;94971.00;5054579;28;20098;-79
2021/08/03 03:25:18;;;;;;;16.40;4.82;;;;;;;22.65;56.07;94973.97;5055874;28;20065;-79
2021/08/03 03:27:43;;;;;;;18.23;4.45;;;;;;;22.65;56.22;94968.66;5054681;28;20060;-79
2021/08/03 03:30:12;;;;;;;10.77;4.30;;;;;;;22.67;55.95;94969.13;5054395;28;20480;-78
2021/08/03 03:32:37;;;;;;;10.23;3.97;;;;;;;22.69;55.86;94974.91;5054661;28;20530;-80
2021/08/03 03:35:03;;;;;;;14.00;4.85;;;;;;;22.74;56.02;94972.13;5022007;28;20037;-80
2021/08/03 03:37:29;;;;;;;9.13;4.30;;;;;;;22.82;55.32;94973.31;5038067;28;20037;-80
2021/08/03 03:39:58;;;;;;;15.15;4.88;;;;;;;22.90;55.17;94979.72;5071547;28;20025;-80
2021/08/03 03:42:31;;;;;;;12.43;4.53;;;;;;;22.98;55.23;94986.94;5055233;28;20033;-80
2021/08/03 03:44:56;;;;;;;20.45;4.50;;;;;;;23.10;54.51;94989.00;5071384;28;20055;-80
2021/08/03 03:47:32;;;;;;;10.82;4.85;;;;;;;23.19;54.12;94993.28;5037303;28;20500;-79
2021/08/03 03:50:02;;;;;;;7.75;3.85;;;;;;;23.24;54.01;94993.13;5055098;28;20033;-80
2021/08/03 03:52:30;;;;;;;13.68;4.22;;;;;;;23.31;53.87;94990.81;5054368;28;20079;-80
2021/08/03 03:54:55;;;;;;;15.25;4.05;;;;;;;23.45;53.88;95000.53;5055253;28;20028;-80
2021/08/03 03:57:21;;;;;;;12.48;3.88;;;;;;;23.50;53.55;95003.84;5052035;28;20037;-79
2021/08/03 03:59:47;;;;;;;9.27;4.05;;;;;;;23.62;53.30;95001.41;5072899;28;20431;-80
2021/08/03 04:02:12;;;;;;;8.57;3.70;;;;;;;23.77;52.75;95012.69;5038269;28;20033;-79
2021/08/03 04:04:38;;;;;;;12.25;4.45;;;;;;;23.88;52.58;95004.09;5021682;28;20044;-80
2021/08/03 04:07:04;;;;;;;9.75;4.00;;;;;;;24.01;51.75;95006.91;5070355;28;20049;-80
2021/08/03 04:09:29;;;;;;;16.13;4.35;;;;;;;24.21;51.67;95011.59;5070810;28;20029;-78
2021/08/03 04:12:01;;;;;;;10.80;4.10;;;;;;;24.42;50.82;95017.13;5037846;28;20029;-81
2021/08/03 04:14:27;;;;;;;8.68;4.68;;;;;;;24.98;49.97;95023.25;5055125;28;20029;-80
2021/08/03 04:16:54;;;;;;;7.82;3.78;;;;;;;26.47;45.99;95028.31;5070200;28;20055;-80
2021/08/03 04:19:20;;;;;;;14.23;4.10;;;;;;;27.94;42.46;95019.44;5054028;28;20106;-80
2021/08/03 04:21:46;;;;;;;5.53;3.22;;;;;;;29.29;38.99;95023.19;5055284;28;20051;-80
2021/08/03 04:24:15;;;;;;;12.82;3.40;;;;;;;30.55;36.28;95016.78;5055686;28;20037;-81
2021/08/03 04:26:40;;;;;;;9.02;3.58;;;;;;;31.59;34.48;95012.13;5053412;28;20087;-80
2021/08/03 04:29:05;;;;;;;9.90;3.28;;;;;;;32.72;32.43;95008.66;5056200;28;20045;-80
2021/08/03 04:31:37;;;;;;;5.90;3.53;;;;;;;33.80;30.29;95016.56;5055634;28;20025;-81
2021/08/03 04:34:02;;;;;;;;;;;;;;;34.83;29.01;95017.13;5069625;28;20056;-81
2021/08/03 04:36:35;;;;;;;12.43;3.70;;;;;;;35.78;27.43;95021.84;5056440;28;19913;-81
2021/08/03 04:39:00;;;;;;;14.30;4.18;;;;;;;36.61;26.16;95017.03;5055237;28;20029;-81
2021/08/03 04:41:26;;;;;;;17.90;3.50;;;;;;;37.50;24.43;95016.53;5056064;28;20025;-81
2021/08/03 04:43:51;;;;;;;7.07;3.47;;;;;;;38.21;23.85;95018.63;5072322;28;20041;-81
2021/08/03 04:46:20;;;;;;;17.10;3.88;;;;;;;38.92;22.83;95025.19;5042272;28;20569;-81
2021/08/03 04:48:45;;;;;;;12.38;3.10;;;;;;;39.60;21.73;95027.69;5058586;28;20041;-79
2021/08/03 04:51:11;;;;;;;8.55;2.65;;;;;;;40.10;20.73;95024.13;5058423;28;20032;-78
2021/08/03 04:53:36;;;;;;;15.48;2.63;;;;;;;40.31;20.58;95018.28;5040497;28;20045;-78
2021/08/03 04:56:02;;;;;;;5.40;2.85;;;;;;;41.30;19.64;95022.88;5056812;28;20032;-77
2021/08/03 04:58:27;;;;;;;5.03;2.67;;;;;;;41.98;19.00;95021.97;5056234;28;20032;-78
2021/08/03 05:00:52;;;;;;;10.77;3.10;;;;;;;42.78;17.89;95025.69;5057995;28;20052;-79
2021/08/03 05:03:18;;;;;;;9.55;3.83;;;;;;;43.41;17.32;95029.69;5058761;28;20033;-79
2021/08/03 05:05:50;;;;;;;8.27;3.60;;;;;;;44.10;16.88;95031.75;5054930;28;20044;-79
2021/08/03 05:08:15;;;;;;;12.98;6.03;;;;;;;44.27;16.81;95027.66;5058594;28;20024;-79
2021/08/03 05:10:41;;;;;;;10.13;3.22;;;;;;;44.81;16.21;95026.50;5058783;28;20037;-83
2021/08/03 05:13:06;;;;;;;12.95;2.42;;;;;;;45.00;15.49;95027.38;5059334;28;20477;-79
2021/08/03 05:15:32;;;;;;;7.82;3.13;;;;;;;45.38;15.58;95029.81;5058907;28;20034;-81
2021/08/03 05:17:57;;;;;;;13.07;3.30;;;;;;;46.11;15.08;95027.25;5057386;28;20037;-79
2021/08/03 05:20:23;;;;;;;6.60;2.50;;;;;;;46.93;14.41;95029.16;5058198;28;20115;-79
2021/08/03 05:22:49;;;;;;;14.23;2.58;;;;;;;47.44;13.86;95040.13;5024810;28;20462;-80
2021/08/03 05:25:15;;;;;;;6.40;2.20;;;;;;;47.83;13.25;95042.97;5073559;28;20068;-79
2021/08/03 05:27:40;;;;;;;5.35;2.13;;;;;;;48.11;13.02;95043.56;5040421;28;20021;-79
2021/08/03 05:30:06;;;;;;;8.75;2.13;;;;;;;48.05;12.70;95037.97;5058196;28;20392;-79
2021/08/03 05:32:32;;;;;;;7.22;1.95;;;;;;;47.68;13.06;95047.66;5058970;28;20028;-80
2021/08/03 05:34:57;;;;;;;8.50;2.03;;;;;;;48.13;12.71;95044.63;5040789;28;20033;-79
2021/08/03 05:37:22;;;;;;;9.48;2.38;;;;;;;48.47;12.60;95045.28;5057162;28;20033;-79
2021/08/03 05:39:48;;;;;;;6.25;2.47;;;;;;;49.27;12.08;95038.63;5059181;28;20400;-79
2021/08/03 05:42:13;;;;;;;8.10;2.28;;;;;;;49.47;12.12;95048.22;5056963;28;20077;-79
2021/08/03 05:44:39;;;;;;;6.45;2.10;;;;;;;50.07;11.59;95047.56;5058706;28;20098;-79
2021/08/03 05:47:04;;;;;;;3.92;2.58;;;;;;;50.36;10.90;95051.44;5057013;28;20038;-79
2021/08/03 05:49:30;;;;;;;9.82;2.30;;;;;;;50.68;10.90;95043.94;5057783;28;20032;-79
2021/08/03 05:51:55;;;;;;;6.22;1.80;;;;;;;50.89;10.53;95048.16;5058117;28;20041;-79
2021/08/03 05:54:22;;;;;;;6.88;1.80;;;;;;;50.73;10.39;95046.03;5058811;28;20029;-81
2021/08/03 05:56:47;;;;;;;11.63;2.50;;;;;;;51.24;10.65;95049.97;5057594;28;20040;-81
2021/08/03 05:59:13;;;;;;;3.85;1.67;;;;;;;51.52;10.18;95042.63;5039904;28;20021;-81
2021/08/03 06:01:38;;;;;;;6.00;1.88;;;;;;;51.49;9.97;95043.63;5099689;22;20041;-79
2021/08/03 06:04:04;;;;;;;7.03;2.35;;;;;;;51.93;10.09;95034.03;5078374;28;20048;-80
2021/08/03 06:06:29;;;;;;;12.93;2.58;;;;;;;51.82;9.98;95037.50;5077849;28;20442;-81
2021/08/03 06:08:58;;;;;;;4.35;1.95;;;;;;;51.99;9.83;95037.59;5041795;28;20451;-82
2021/08/03 06:11:24;;;;;;;13.73;2.15;;;;;;;51.79;9.82;95040.53;5077435;28;20031;-82
2021/08/03 06:13:53;;;;;;;10.00;1.92;;;;;;;52.11;9.87;95041.94;5076723;28;20028;-81
2021/08/03 06:16:19;;;;;;;8.45;1.77;;;;;;;52.53;9.63;95043.06;5076176;28;20048;-81
2021/08/03 06:18:45;;;;;;;12.45;2.30;;;;;;;52.90;9.17;95044.91;5075892;28;20037;-81
2021/08/03 06:21:12;;;;;;;5.70;1.88;;;;;;;52.93;9.59;95047.44;5058400;28;20052;-81
2021/08/03 06:23:37;;;;;;;5.55;1.85;;;;;;;52.94;9.35;95048.19;5075725;28;20024;-79
2021/08/03 06:26:03;;;;;;;12.20;2.25;;;;;;;53.00;9.69;95051.72;5059936;28;20039;-79
2021/08/03 06:28:28;;;;;;;6.82;2.25;;;;;;;53.22;9.03;95040.63;5075766;28;20036;-79
2021/08/03 06:30:54;;;;;;;5.93;2.63;;;;;;;52.83;9.38;95043.38;5076664;28;20519;-80
2021/08/03 06:33:20;;;;;;;5.97;2.50;;;;;;;52.00;9.81;95046.66;5078040;28;20029;-80
2021/08/03 06:35:46;;;;;;;5.72;2.25;;;;;;;51.66;10.38;95045.72;5059711;28;20424;-79
2021/08/03 06:38:11;;;;;;;8.73;2.22;;;;;;;51.97;10.28;95045.66;5026120;28;20052;-79
2021/08/03 06:40:39;;;;;;;7.75;2.22;;;;;;;50.94;10.92;95044.72;5057208;28;20397;-80
2021/08/03 06:43:09;;;;;;;8.35;2.13;;;;;;;49.58;11.66;95051.16;5059961;28;20024;-80
2021/08/03 06:45:35;;;;;;;4.80;2.45;;;;;;;48.74;12.67;95051.81;5059617;28;20079;-79
2021/08/03 06:48:02;;;;;;;6.03;2.80;;;;;;;47.80;13.12;95043.94;5041003;28;20044;-79
2021/08/03 06:50:33;;;;;;;7.28;2.63;;;;;;;46.98;13.89;95041.53;5077219;28;20044;-79
2021/08/03 06:53:00;;;;;;;9.43;2.70;;;;;;;45.87;14.60;95045.53;5059376;28;20135;-79
2021/08/03 06:55:32;;;;;;;4.72;2.65;;;;;;;44.84;15.57;95056.53;5077294;28;20032;-79
2021/08/03 06:58:02;;;;;;;8.55;2.90;;;;;;;44.54;16.10;95043.56;5059175;28;20028;-79
2021/08/03 07:00:36;;;;;;;16.37;3.00;;;;;;;44.12;16.48;95045.81;5042077;28;20503;-79
2021/08/03 07:03:01;;;;;;;10.82;3.15;;;;;;;43.68;17.01;95046.41;5042723;28;20034;-79
2021/08/03 07:05:27;;;;;;;16.98;3.65;;;;;;;42.91;17.39;95046.84;5077589;28;20041;-79
2021/08/03 07:07:57;;;;;;;11.80;3.28;;;;;;;42.25;18.36;95049.78;5039714;28;20039;-79
2021/08/03 07:10:22;;;;;;;12.07;3.30;;;;;;;41.67;19.27;95054.41;5075274;28;20040;-79
2021/08/03 07:12:48;;;;;;;8.82;3.40;;;;;;;41.03;19.64;95056.59;5076089;28;20101;-79
2021/08/03 07:15:13;;;;;;;4.80;3.50;;;;;;;40.45;20.35;95058.91;5041641;28;20036;-79
2021/08/03 07:17:42;;;;;;;20.48;3.85;;;;;;;40.23;20.75;95057.75;5058285;28;20038;-79
2021/08/03 07:20:09;;;;;;;18.05;4.45;;;;;;;40.04;21.11;95055.78;5056438;28;20397;-79
2021/08/03 07:22:36;;;;;;;10.13;4.10;;;;;;;39.87;21.30;95055.63;5076074;28;20025;-79
2021/08/03 07:25:02;;;;;;;12.00;4.20;;;;;;;39.66;21.21;95055.97;5076697;28;20415;-79
2021/08/03 07:27:28;;;;;;;14.88;5.07;;;;;;;39.18;21.75;95053.56;5076670;28;20024;-79
2021/08/03 07:29:53;;;;;;;12.98;5.18;;;;;;;38.82;22.42;95058.69;5058352;28;20033;-79
2021/08/03 07:32:18;;;;;;;7.45;4.68;;;;;;;38.64;22.46;95061.63;5075430;28;20029;-79
2021/08/03 07:34:44;;;;;;;8.10;4.82;;;;;;;38.46;22.91;95048.22;5057247;28;20040;-79
2021/08/03 07:37:09;;;;;;;14.35;5.43;;;;;;;38.29;22.61;95054.63;5075847;28;20550;-79
2021/08/03 07:39:42;;;;;;;17.27;5.28;;;;;;;38.14;22.79;95065.63;5057579;28;20024;-79
2021/08/03 07:42:08;;;;;;;22.88;5.90;;;;;;;37.79;23.00;95055.09;5058794;28;20028;-79
2021/08/03 07:44:34;;;;;;;13.40;5.65;;;;;;;37.72;23.71;95055.88;5024796;28;20459;-79
2021/08/03 07:46:59;;;;;;;14.82;5.68;;;;;;;37.63;24.01;95047.44;5023277;28;20132;-80
2021/08/03 07:49:31;;;;;;;11.25;5.45;;;;;;;37.22;24.12;95052.75;5082062;22;20048;-80
2021/08/03 07:51:57;;;;;;;14.85;6.35;;;;;;;37.09;23.69;95052.44;5075847;28;20041;-80
2021/08/03 07:54:23;;;;;;;9.52;6.18;;;;;;;36.81;23.96;95041.75;5058182;28;20082;-79
2021/08/03 07:56:48;;;;;;;9.75;6.32;;;;;;;36.08;25.09;95039.63;5074716;28;20476;-80
2021/08/03 07:59:17;;;;;;;19.98;6.75;;;;;;;35.98;25.42;95041.19;5074848;28;20016;-80
2021/08/03 08:01:42;;;;;;;14.25;6.05;;;;;;;36.11;25.80;95038.06;5056211;28;20090;-80
2021/08/03 08:04:07;;;;;;;13.70;6.00;;;;;;;36.18;25.75;95033.41;5074965;28;20420;-79
2021/08/03 08:06:33;;;;;;;14.32;6.03;;;;;;;36.08;25.29;95036.91;5074481;28;20041;-80
2021/08/03 08:08:58;;;;;;;12.90;6.32;;;;;;;35.93;25.42;95028.03;5076077;28;20037;-80
2021/08/03 08:11:27;;;;;;;13.57;6.60;;;;;;;35.91;24.94;95024.19;5075748;28;20454;-79
2021/08/03 08:13:52;;;;;;;14.07;6.60;;;;;;;35.94;25.26;95024.19;5074252;28;20520;-80
2021/08/03 08:16:17;;;;;;;18.85;7.00;;;;;;;35.92;25.55;95031.91;5074103;28;20039;-80
2021/08/03 08:18:43;;;;;;;12.55;6.55;;;;;;;35.81;25.27;95033.84;5074414;28;20029;-80
2021/08/03 08:21:09;;;;;;;15.65;6.80;;;;;;;35.68;25.52;95028.06;5040905;28;20127;-80
2021/08/03 08:23:34;;;;;;;12.93;7.22;;;;;;;35.69;25.13;95035.03;5057813;28;20035;-80
2021/08/03 08:26:03;;;;;;;15.68;9.18;;;;;;;35.46;25.93;95037.31;5074597;28;20085;-80
2021/08/03 08:28:29;;;;;;;12.98;7.05;;;;;;;35.36;26.33;95033.47;5058066;28;20393;-80
2021/08/03 08:30:54;;;;;;;11.50;6.60;;;;;;;35.25;25.75;95037.28;5074471;28;20039;-80
2021/08/03 08:33:20;;;;;;;12.55;7.10;;;;;;;35.11;26.15;95038.81;5075729;28;20059;-80
2021/08/03 08:35:45;;;;;;;20.50;7.15;;;;;;;35.12;26.07;95032.25;5074485;28;20021;-80
2021/08/03 08:38:11;;;;;;;20.10;7.70;;;;;;;35.15;26.01;95034.19;5074763;28;20029;-79
2021/08/03 08:40:36;;;;;;;13.38;6.50;;;;;;;35.08;26.12;95030.69;5075819;28;20024;-80
2021/08/03 08:43:02;;;;;;;11.63;6.70;;;;;;;35.06;25.27;95025.69;5074132;28;20040;-79
2021/08/03 08:45:28;;;;;;;14.55;6.40;;;;;;;35.08;25.31;95023.34;5074025;28;20492;-79
2021/08/03 08:48:00;;;;;;;12.18;6.88;;;;;;;34.95;25.06;95024.88;5057381;28;20021;-79
2021/08/03 08:50:25;;;;;;;14.80;6.43;;;;;;;34.79;25.16;95027.13;5076805;28;20100;-79
2021/08/03 08:52:54;;;;;;;13.13;6.57;;;;;;;34.66;25.86;95021.31;5074450;28;20040;-79
2021/08/03 08:55:21;;;;;;;12.85;6.72;;;;;;;34.62;25.56;95023.22;5059460;28;20041;-81
2021/08/03 08:57:48;;;;;;;20.02;6.93;;;;;;;34.61;25.61;95027.84;5075299;28;20035;-79
2021/08/03 09:00:13;;;;;;;20.77;6.55;;;;;;;34.63;24.38;95030.16;5074681;28;20043;-81
2021/08/03 09:02:44;;;;;;;15.82;6.68;;;;;;;34.63;24.89;95027.47;5073359;28;20029;-78
2021/08/03 09:05:16;;;;;;;15.70;6.40;;;;;;;34.59;24.59;95024.75;5073566;28;20546;-81
2021/08/03 09:07:48;;;;;;;11.68;6.15;;;;;;;34.61;24.56;95027.06;5057626;28;20040;-81
2021/08/03 09:10:32;;;;;;;18.95;6.30;;;;;;;34.47;23.12;95022.38;5074952;28;20049;-81
2021/08/03 09:13:17;;;;;;;11.63;5.85;;;;;;;34.29;23.71;95016.88;5075481;28;20070;-81
2021/08/03 09:15:44;;;;;;;10.18;5.80;;;;;;;34.26;23.54;95023.03;5058102;28;20040;-81
2021/08/03 09:18:29;;;;;;;16.08;5.57;;;;;;;34.14;24.60;95017.19;5040566;28;20032;-81
2021/08/03 09:20:55;;;;;;;11.95;5.50;;;;;;;34.16;23.03;95022.97;5073896;28;20032;-81
2021/08/03 09:23:39;;;;;;;9.98;5.20;;;;;;;34.22;21.48;95016.09;5074768;28;20166;-80
2021/08/03 09:26:05;;;;;;;14.82;5.53;;;;;;;34.28;21.57;95011.84;5074076;28;20066;-81
2021/08/03 09:28:30;;;;;;;11.35;5.20;;;;;;;34.27;22.38;95016.47;5074308;28;20024;-81
2021/08/03 09:30:56;;;;;;;13.93;5.07;;;;;;;34.25;22.34;95015.31;5076401;28;20039;-81
2021/08/03 09:33:25;;;;;;;12.35;5.30;;;;;;;34.18;21.51;95007.19;5060242;28;20024;-81
2021/08/03 09:35:51;;;;;;;7.97;4.88;;;;;;;33.90;20.95;94999.72;5077607;28;20511;-81
2021/08/03 09:38:18;;;;;;;6.85;4.60;;;;;;;33.73;20.74;95001.13;5075934;28;20167;-81
2021/08/03 09:40:44;;;;;;;8.70;5.03;;;;;;;33.69;21.05;94989.53;5078181;28;20178;-81
2021/08/03 09:43:11;;;;;;;11.90;5.10;;;;;;;33.49;22.07;94985.53;5060001;28;20032;-81
2021/08/03 09:45:57;;;;;;;8.52;4.65;;;;;;;33.37;22.49;94995.47;5077790;28;20102;-81
2021/08/03 09:48:24;;;;;;;16.48;4.70;;;;;;;33.30;21.53;94989.97;5076221;28;20054;-81
2021/08/03 09:51:12;;;;;;;8.43;4.20;;;;;;;33.34;21.95;94988.09;5114311;22;20041;-81
2021/08/03 09:53:45;;;;;;;17.95;4.95;;;;;;;33.45;21.91;94979.34;5077880;28;20122;-81
2021/08/03 09:56:23;;;;;;;7.30;3.78;;;;;;;33.47;21.15;94985.13;5057981;28;20044;-80
2021/08/03 09:58:58;;;;;;;19.60;4.43;;;;;;;33.46;22.23;94988.97;5083897;22;20508;-80
2021/08/03 10:01:25;;;;;;;7.28;5.43;;;;;;;32.76;23.68;94977.16;5085794;28;20028;-80
2021/08/03 10:03:51;;;;;;;6.80;5.70;;;;;;;32.53;23.63;94975.34;5094697;28;20028;-81
2021/08/03 10:06:17;;;;;;;9.32;4.38;;;;;;;32.64;21.43;94970.09;5098852;28;20420;-80
2021/08/03 10:08:43;;;;;;;15.18;4.43;;;;;;;32.74;20.80;94974.81;5097808;28;20057;-80
2021/08/03 10:11:08;;;;;;;7.07;4.07;;;;;;;32.84;20.88;94979.56;5079838;28;20044;-81
2021/08/03 10:16:03;;;;;;;13.90;5.00;;;;;;;33.02;20.87;94968.94;5084995;22;20056;-81
2021/08/03 10:18:29;;;;;;;7.95;4.55;;;;;;;33.16;21.82;94962.91;5078431;28;20063;-80
2021/08/03 10:20:55;;;;;;;12.73;4.70;;;;;;;33.21;21.59;94965.28;5077013;28;20020;-80
2021/08/03 10:23:20;;;;;;;10.82;4.80;;;;;;;32.64;21.95;94961.25;5076615;28;20146;-81
2021/08/03 10:25:45;;;;;;;9.73;5.85;;;;;;;32.72;22.01;94960.97;5076624;28;20067;-80
2021/08/03 10:28:29;;;;;;;13.10;5.13;;;;;;;32.84;22.34;94963.41;5059681;28;20036;-80
2021/08/03 10:30:54;;;;;;;16.95;5.53;;;;;;;32.84;22.55;94962.63;5061024;28;20055;-80
2021/08/03 10:33:39;;;;;;;8.05;5.13;;;;;;;32.88;22.18;94965.38;5057379;28;20028;-81
2021/08/03 10:36:04;;;;;;;9.70;5.30;;;;;;;32.93;22.51;94954.25;5077438;28;20044;-80
2021/08/03 10:38:32;;;;;;;11.07;5.13;;;;;;;32.98;22.66;94945.81;5075885;28;20021;-81
2021/08/03 10:41:00;;;;;;;7.72;5.10;;;;;;;33.03;22.20;94940.88;5074119;28;20067;-80
2021/08/03 10:43:32;;;;;;;10.45;4.97;;;;;;;33.00;22.44;94946.22;5076634;28;20048;-81
2021/08/03 10:46:07;;;;;;;9.38;5.13;;;;;;;32.83;22.29;94956.47;5076323;28;20029;-81
2021/08/03 10:48:39;;;;;;;13.02;5.20;;;;;;;32.73;22.24;94950.97;5076283;28;20029;-80
2021/08/03 10:51:16;;;;;;;;;;;;;;;32.71;22.52;94953.25;5077900;28;20488;-81
2021/08/03 10:54:00;;;;;;;12.70;5.63;;;;;;;32.57;22.12;94953.88;5076169;28;19917;-80
2021/08/03 10:56:26;;;;;;;10.55;5.30;;;;;;;32.53;21.89;94948.44;5076140;28;20111;-80
2021/08/03 10:59:29;;;;;;;15.20;4.93;;;;;;;32.50;22.21;94945.72;5075386;28;20078;-81
2021/08/03 11:01:55;;;;;;;10.98;4.97;;;;;;;32.54;22.73;94938.44;5077468;28;20089;-81
2021/08/03 11:04:42;;;;;;;18.77;5.45;;;;;;;32.60;22.38;94942.38;5077172;28;20522;-81
2021/08/03 11:07:30;;;;;;;12.38;4.85;;;;;;;32.70;21.84;94940.91;5077612;28;20056;-80
2021/08/03 11:09:56;;;;;;;15.00;4.80;;;;;;;32.72;21.80;94944.03;5076091;28;20032;-80
2021/08/03 11:12:38;;;;;;;13.77;4.80;;;;;;;32.63;21.85;94944.31;5043319;28;20024;-81
2021/08/03 11:15:22;;;;;;;17.83;4.47;;;;;;;32.62;21.88;94934.69;5075837;28;20039;-81
2021/08/03 11:17:54;;;;;;;8.60;4.13;;;;;;;32.70;22.46;94938.97;5075596;28;20041;-80
2021/08/03 11:20:35;;;;;;;8.73;4.15;;;;;;;32.61;21.56;94933.16;5076775;28;20033;-81
2021/08/03 11:23:01;;;;;;;9.43;4.90;;;;;;;32.49;22.20;94936.09;5077271;28;20041;-81
2021/08/03 11:25:27;;;;;;;10.20;5.07;;;;;;;32.49;22.04;94930.69;5040516;28;20040;-80
2021/08/03 11:27:53;;;;;;;11.00;4.30;;;;;;;32.51;22.23;94928.41;5076593;28;20032;-80
2021/08/03 11:30:19;;;;;;;7.05;4.53;;;;;;;32.48;22.23;94927.22;5076500;28;20477;-81
2021/08/03 11:32:47;;;;;;;11.27;5.03;;;;;;;32.42;22.24;94925.25;5075595;28;20032;-80
2021/08/03 11:35:14;;;;;;;7.90;4.38;;;;;;;32.42;21.99;94920.66;5075896;28;20055;-81
2021/08/03 11:37:40;;;;;;;10.07;4.43;;;;;;;32.40;21.62;94919.47;5140388;22;20507;-81